Time;durP1;ratioP1;P1;durP2;ratioP2;P2;SDS_P1;SDS_P2;PMS_P1;PMS_P2;Temp;Humidity;BMP_temperature;BMP_pressure;BME280_temperature;BME280_humidity;BME280_pressure;Samples;Min_cycle;Max_cycle;Signal;HPM_P1;HPM_P2
2024/03/04 00:03:15;;;;;;;4.70;2.20;;;;;;;;;;10140477;28;20139;-85
2024/03/04 00:08:09;;;;;;;2.80;2.60;;;;;;;;;;10130371;28;20394;-85
2024/03/04 00:13:04;;;;;;;2.05;1.85;;;;;;;;;;10125990;28;20148;-85
2024/03/04 00:17:58;;;;;;;2.55;1.80;;;;;;;;;;10141405;28;20558;-86
2024/03/04 00:22:52;;;;;;;1.63;1.52;;;;;;;;;;10144967;28;20512;-85
2024/03/04 00:27:53;;;;;;;2.25;2.05;;;;;;;;;;10144068;28;20121;-87
2024/03/04 00:32:47;;;;;;;3.28;1.55;;;;;;;;;;10144432;28;20052;-87
2024/03/04 00:37:41;;;;;;;1.98;1.88;;;;;;;;;;10141910;28;20131;-87
2024/03/04 00:42:38;;;;;;;1.65;1.55;;;;;;;;;;10142083;28;20044;-87
2024/03/04 00:47:32;;;;;;;4.63;2.10;;;;;;;;;;10138307;28;20056;-85
2024/03/04 00:52:26;;;;;;;2.78;2.45;;;;;;;;;;10140151;28;20044;-86
2024/03/04 00:57:21;;;;;;;2.60;2.40;;;;;;;;;;10136994;28;20060;-86
2024/03/04 01:02:15;;;;;;;3.10;2.90;;;;;;;;;;10134220;28;20080;-81
2024/03/04 01:07:08;;;;;;;3.55;3.25;;;;;;;;;;10139715;28;20416;-85
2024/03/04 01:12:03;;;;;;;6.97;3.60;;;;;;;;;;10140253;28;20092;-83
2024/03/04 01:16:57;;;;;;;4.28;2.72;;;;;;;;;;10141017;28;20096;-83
2024/03/04 01:21:52;;;;;;;3.53;3.25;;;;;;;;;;10138482;28;20049;-83
2024/03/04 01:26:46;;;;;;;6.47;4.45;;;;;;;;;;10141125;28;20049;-84
2024/03/04 01:31:41;;;;;;;7.07;4.28;;;;;;;;;;10140367;28;20060;-84
2024/03/04 01:36:35;;;;;;;4.25;3.35;;;;;;;;;;10138879;28;20048;-84
2024/03/04 01:41:29;;;;;;;4.40;4.10;;;;;;;;;;10128771;28;20056;-84
2024/03/04 01:46:24;;;;;;;4.75;4.45;;;;;;;;;;10139819;28;20056;-84
2024/03/04 01:51:18;;;;;;;6.25;5.38;;;;;;;;;;10131547;28;20044;-84
2024/03/04 01:56:13;;;;;;;6.68;6.18;;;;;;;;;;10140846;28;20094;-84
2024/03/04 02:01:07;;;;;;;6.47;5.95;;;;;;;;;;10143533;28;20557;-84
2024/03/04 02:06:01;;;;;;;8.52;4.93;;;;;;;;;;10147934;28;20040;-84
2024/03/04 02:10:55;;;;;;;3.85;2.92;;;;;;;;;;10141248;28;20155;-84
2024/03/04 02:15:50;;;;;;;5.85;5.10;;;;;;;;;;10147264;28;20481;-84
2024/03/04 02:20:45;;;;;;;6.22;5.63;;;;;;;;;;10146057;28;20088;-83
2024/03/04 02:25:39;;;;;;;7.18;5.85;;;;;;;;;;10122020;28;20052;-84
2024/03/04 02:30:33;;;;;;;5.90;5.35;;;;;;;;;;10128664;28;20056;-83
2024/03/04 02:35:27;;;;;;;5.85;5.38;;;;;;;;;;10146234;28;20048;-84
2024/03/04 02:40:21;;;;;;;6.85;6.15;;;;;;;;;;10140508;28;20052;-84
2024/03/04 02:45:16;;;;;;;7.68;4.82;;;;;;;;;;10146163;28;20059;-83
2024/03/04 02:50:10;;;;;;;7.60;6.20;;;;;;;;;;10142021;28;20074;-83
2024/03/04 02:55:06;;;;;;;5.43;4.82;;;;;;;;;;10144428;28;20131;-83
2024/03/04 03:00:00;;;;;;;5.75;5.00;;;;;;;;;;10138590;28;20520;-82
2024/03/04 03:04:54;;;;;;;5.88;5.32;;;;;;;;;;10144556;28;20052;-84
2024/03/04 03:09:48;;;;;;;5.13;4.68;;;;;;;;;;10138427;28;20041;-85
2024/03/04 03:14:43;;;;;;;8.10;6.95;;;;;;;;;;10141391;28;20044;-84
2024/03/04 03:19:38;;;;;;;6.85;5.10;;;;;;;;;;10144129;28;20049;-84
2024/03/04 03:24:32;;;;;;;6.45;4.45;;;;;;;;;;10144596;28;20472;-83
2024/03/04 03:29:26;;;;;;;7.35;6.75;;;;;;;;;;10143603;28;20068;-83
2024/03/04 03:34:21;;;;;;;8.98;7.85;;;;;;;;;;10144006;28;20143;-83
2024/03/04 03:39:15;;;;;;;9.02;7.30;;;;;;;;;;10143421;28;20083;-83
2024/03/04 03:44:09;;;;;;;8.63;6.97;;;;;;;;;;10125721;28;20100;-83
2024/03/04 03:49:03;;;;;;;8.00;5.60;;;;;;;;;;10143227;28;20107;-83
2024/03/04 03:53:57;;;;;;;6.38;4.55;;;;;;;;;;10143515;28;20105;-82
2024/03/04 03:58:51;;;;;;;9.95;4.93;;;;;;;;;;10142487;28;20106;-82
2024/03/04 04:03:44;;;;;;;7.70;5.20;;;;;;;;;;10142698;28;20048;-82
2024/03/04 04:08:42;;;;;;;9.23;7.45;;;;;;;;;;10136170;28;20131;-83
2024/03/04 04:13:39;;;;;;;10.30;5.35;;;;;;;;;;10141259;28;20471;-83
2024/03/04 04:18:33;;;;;;;6.60;3.47;;;;;;;;;;10141765;28;20044;-83
2024/03/04 04:23:27;;;;;;;2.65;2.45;;;;;;;;;;10142279;28;20049;-83
2024/03/04 04:28:21;;;;;;;2.80;2.00;;;;;;;;;;10141220;28;20073;-83
2024/03/04 04:33:16;;;;;;;3.13;2.35;;;;;;;;;;10142135;28;20080;-84
2024/03/04 04:38:10;;;;;;;4.78;2.92;;;;;;;;;;10141751;28;20109;-82
2024/03/04 04:43:06;;;;;;;2.33;2.13;;;;;;;;;;10140842;28;20040;-82
2024/03/04 04:47:59;;;;;;;2.58;2.20;;;;;;;;;;10141366;28;20056;-83
2024/03/04 04:52:53;;;;;;;2.15;2.03;;;;;;;;;;10140780;28;20045;-83
2024/03/04 04:57:48;;;;;;;3.03;2.25;;;;;;;;;;10143726;28;20138;-85
2024/03/04 05:02:42;;;;;;;2.60;2.30;;;;;;;;;;10137724;28;21374;-82
2024/03/04 05:07:38;;;;;;;3.20;2.40;;;;;;;;;;10142647;28;20056;-81
2024/03/04 05:12:33;;;;;;;3.20;2.83;;;;;;;;;;10139874;28;20504;-84
2024/03/04 05:17:28;;;;;;;4.50;4.03;;;;;;;;;;10139269;28;20548;-84
2024/03/04 05:22:23;;;;;;;4.88;4.28;;;;;;;;;;10140179;28;20143;-83
2024/03/04 05:27:18;;;;;;;4.65;3.70;;;;;;;;;;10138571;28;20045;-83
2024/03/04 05:32:12;;;;;;;4.82;3.58;;;;;;;;;;10138411;28;20040;-83
2024/03/04 05:37:06;;;;;;;5.18;3.92;;;;;;;;;;10140293;28;20055;-82
2024/03/04 05:42:00;;;;;;;4.35;3.95;;;;;;;;;;10149085;28;20135;-85
2024/03/04 05:46:54;;;;;;;4.85;4.35;;;;;;;;;;10149554;28;20076;-84
2024/03/04 05:51:49;;;;;;;6.05;5.45;;;;;;;;;;10147088;28;20048;-85
2024/03/04 05:56:43;;;;;;;5.50;4.93;;;;;;;;;;10149068;28;20406;-84
2024/03/04 06:01:38;;;;;;;5.43;4.93;;;;;;;;;;10150443;28;20053;-89
2024/03/04 06:06:34;;;;;;;6.43;5.28;;;;;;;;;;10146638;28;20048;-88
2024/03/04 06:11:28;;;;;;;6.32;5.72;;;;;;;;;;10146820;28;20052;-88
2024/03/04 06:16:23;;;;;;;7.28;5.93;;;;;;;;;;10145936;28;20051;-87
2024/03/04 06:21:17;;;;;;;7.47;6.28;;;;;;;;;;10145662;28;20106;-83
2024/03/04 06:26:12;;;;;;;8.60;7.70;;;;;;;;;;10146084;28;20036;-85
2024/03/04 06:31:06;;;;;;;11.20;8.35;;;;;;;;;;10148236;28;20152;-86
2024/03/04 06:36:01;;;;;;;11.60;8.88;;;;;;;;;;10143032;28;20460;-83
2024/03/04 06:40:56;;;;;;;8.35;7.05;;;;;;;;;;10142326;28;20048;-83
2024/03/04 06:45:49;;;;;;;6.38;5.68;;;;;;;;;;10142975;28;20049;-85
2024/03/04 06:50:44;;;;;;;8.93;6.18;;;;;;;;;;10141957;28;20056;-82
2024/03/04 06:55:38;;;;;;;7.00;5.68;;;;;;;;;;10152351;28;20094;-82
2024/03/04 07:00:32;;;;;;;8.05;6.75;;;;;;;;;;10144725;28;20089;-85
2024/03/04 07:05:26;;;;;;;26.85;20.75;;;;;;;;;;10145851;28;20132;-85
2024/03/04 07:10:21;;;;;;;8.60;7.70;;;;;;;;;;10145070;28;20135;-83
2024/03/04 07:15:15;;;;;;;8.90;7.97;;;;;;;;;;10145352;28;20579;-83
2024/03/04 07:20:10;;;;;;;7.72;6.95;;;;;;;;;;10143970;28;20385;-84
2024/03/04 07:25:06;;;;;;;10.57;8.65;;;;;;;;;;10144580;28;20480;-84
2024/03/04 07:30:00;;;;;;;9.45;8.50;;;;;;;;;;10144939;28;20140;-84
2024/03/04 07:34:56;;;;;;;12.65;9.98;;;;;;;;;;10143902;28;20048;-83
2024/03/04 07:39:50;;;;;;;13.05;9.65;;;;;;;;;;10143463;28;20183;-84
2024/03/04 07:44:44;;;;;;;13.55;12.10;;;;;;;;;;10141433;28;20044;-83
2024/03/04 07:49:39;;;;;;;12.77;11.13;;;;;;;;;;10143445;28;20544;-82
2024/03/04 07:54:36;;;;;;;14.20;10.48;;;;;;;;;;10132809;28;20044;-77
2024/03/04 07:59:33;;;;;;;10.57;8.73;;;;;;;;;;10139995;28;20059;-75
2024/03/04 08:04:28;;;;;;;11.48;10.27;;;;;;;;;;10141611;28;20044;-77
2024/03/04 08:09:22;;;;;;;11.07;9.02;;;;;;;;;;10142835;28;20052;-77
2024/03/04 08:14:16;;;;;;;9.48;7.95;;;;;;;;;;10142598;28;20094;-78
2024/03/04 08:19:11;;;;;;;12.50;8.32;;;;;;;;;;10142621;28;20080;-77
2024/03/04 08:24:06;;;;;;;9.60;8.18;;;;;;;;;;10142169;28;20060;-77
2024/03/04 08:29:01;;;;;;;11.90;9.05;;;;;;;;;;10142261;28;20049;-77
2024/03/04 08:33:55;;;;;;;8.70;7.80;;;;;;;;;;10131540;28;20049;-76
2024/03/04 08:38:50;;;;;;;8.63;7.68;;;;;;;;;;10142144;28;20548;-77
2024/03/04 08:43:44;;;;;;;7.70;6.90;;;;;;;;;;10133050;28;20051;-77
2024/03/04 08:48:39;;;;;;;8.63;7.13;;;;;;;;;;10141082;28;20044;-78
2024/03/04 08:53:33;;;;;;;8.40;6.95;;;;;;;;;;10141405;28;20048;-78
2024/03/04 08:58:26;;;;;;;8.70;5.93;;;;;;;;;;10141143;28;20041;-78
2024/03/04 09:03:21;;;;;;;6.50;5.63;;;;;;;;;;10137103;28;20060;-75
2024/03/04 09:08:15;;;;;;;6.93;5.63;;;;;;;;;;10135371;28;20170;-75
2024/03/04 09:13:10;;;;;;;7.32;6.63;;;;;;;;;;10139905;28;20052;-75
2024/03/04 09:18:05;;;;;;;8.20;6.68;;;;;;;;;;10140520;28;20049;-74
2024/03/04 09:22:59;;;;;;;8.02;5.93;;;;;;;;;;10139913;28;20431;-74
2024/03/04 09:27:53;;;;;;;11.63;8.10;;;;;;;;;;10134547;28;20056;-73
2024/03/04 09:32:47;;;;;;;11.35;7.20;;;;;;;;;;10139426;28;20052;-74
2024/03/04 09:37:44;;;;;;;9.40;7.85;;;;;;;;;;10123624;28;20059;-74
2024/03/04 09:42:40;;;;;;;9.07;8.13;;;;;;;;;;10126590;28;20053;-74
2024/03/04 09:47:34;;;;;;;9.35;7.75;;;;;;;;;;10134570;28;20044;-74
2024/03/04 09:52:30;;;;;;;9.27;8.35;;;;;;;;;;10157003;28;20132;-75
2024/03/04 09:57:23;;;;;;;9.93;9.00;;;;;;;;;;10132033;28;20096;-75
2024/03/04 10:02:17;;;;;;;9.15;8.05;;;;;;;;;;10140145;28;20112;-74
2024/03/04 10:07:11;;;;;;;10.13;9.10;;;;;;;;;;10125350;28;20047;-74
2024/03/04 10:12:07;;;;;;;8.57;7.43;;;;;;;;;;10167927;28;20056;-74
2024/03/04 10:17:01;;;;;;;10.18;9.13;;;;;;;;;;10134198;28;20048;-75
2024/03/04 10:21:55;;;;;;;10.65;8.68;;;;;;;;;;10152273;28;20136;-74
2024/03/04 10:26:50;;;;;;;14.07;11.90;;;;;;;;;;10130202;28;20052;-75
2024/03/04 10:31:53;;;;;;;8.85;7.40;;;;;;;;;;10161690;28;20131;-75
2024/03/04 10:36:51;;;;;;;10.43;9.43;;;;;;;;;;10172446;28;20048;-75
2024/03/04 10:41:47;;;;;;;9.70;8.57;;;;;;;;;;10165003;28;20466;-76
2024/03/04 10:46:41;;;;;;;8.05;7.22;;;;;;;;;;10166348;28;20071;-73
2024/03/04 10:51:35;;;;;;;8.45;7.47;;;;;;;;;;10159508;28;20052;-74
2024/03/04 10:56:31;;;;;;;12.93;10.75;;;;;;;;;;10159034;28;20118;-75
2024/03/04 11:01:25;;;;;;;10.73;9.30;;;;;;;;;;10158486;28;20072;-75
2024/03/04 11:06:21;;;;;;;8.77;7.88;;;;;;;;;;10164798;28;20114;-74
2024/03/04 11:11:28;;;;;;;7.68;6.90;;;;;;;;;;10123054;28;20151;-74
2024/03/04 11:16:40;;;;;;;5.60;5.03;;;;;;;;;;10159214;28;20059;-75
2024/03/04 11:21:40;;;;;;;6.75;6.10;;;;;;;;;;10127312;28;20134;-77
2024/03/04 11:26:54;;;;;;;5.45;4.93;;;;;;;;;;10131668;28;20055;-75
2024/03/04 11:31:59;;;;;;;4.93;4.05;;;;;;;;;;10134062;28;20054;-74
2024/03/04 11:36:53;;;;;;;3.88;3.53;;;;;;;;;;10119945;28;20052;-75
2024/03/04 11:41:52;;;;;;;3.90;3.60;;;;;;;;;;10123660;28;20126;-75
2024/03/04 11:46:45;;;;;;;3.33;3.03;;;;;;;;;;10132623;28;20106;-76
2024/03/04 11:51:46;;;;;;;2.42;2.22;;;;;;;;;;10136208;28;20510;-74
2024/03/04 11:56:40;;;;;;;2.40;2.20;;;;;;;;;;10132542;28;20056;-75
2024/03/04 12:01:38;;;;;;;3.55;2.88;;;;;;;;;;10140050;28;20092;-75
2024/03/04 12:06:32;;;;;;;5.70;4.32;;;;;;;;;;10123239;28;20072;-74
2024/03/04 12:11:26;;;;;;;5.75;5.10;;;;;;;;;;10135459;28;20447;-75
2024/03/04 12:16:20;;;;;;;3.47;3.17;;;;;;;;;;10127169;28;20538;-74
2024/03/04 12:21:14;;;;;;;7.57;6.47;;;;;;;;;;10133371;28;20080;-75
2024/03/04 12:26:12;;;;;;;7.95;5.63;;;;;;;;;;10130042;28;20462;-75
2024/03/04 12:31:10;;;;;;;7.45;6.70;;;;;;;;;;10134639;28;20106;-75
2024/03/04 12:36:08;;;;;;;8.85;6.45;;;;;;;;;;10130670;28;20057;-74
2024/03/04 12:41:05;;;;;;;7.28;6.55;;;;;;;;;;10111751;28;20057;-75
2024/03/04 12:46:02;;;;;;;7.55;6.75;;;;;;;;;;10127660;28;20053;-75
2024/03/04 12:50:56;;;;;;;9.60;8.48;;;;;;;;;;10130141;28;20068;-75
2024/03/04 12:55:49;;;;;;;9.80;8.75;;;;;;;;;;10134248;28;20060;-74
2024/03/04 13:00:45;;;;;;;11.90;7.93;;;;;;;;;;10133285;28;20048;-75
2024/03/04 13:05:39;;;;;;;10.60;9.57;;;;;;;;;;10130128;28;20585;-75
2024/03/04 13:10:36;;;;;;;9.65;8.57;;;;;;;;;;10124292;28;20052;-75
2024/03/04 13:15:30;;;;;;;9.85;8.95;;;;;;;;;;10127584;28;20049;-74
2024/03/04 13:20:24;;;;;;;7.95;6.40;;;;;;;;;;10125465;28;20057;-76
2024/03/04 13:25:19;;;;;;;9.65;8.70;;;;;;;;;;10128413;28;20082;-75
2024/03/04 13:30:14;;;;;;;11.50;10.23;;;;;;;;;;10126937;28;20060;-75
2024/03/04 13:35:09;;;;;;;9.13;8.02;;;;;;;;;;10128503;28;20071;-75
2024/03/04 13:40:06;;;;;;;6.00;5.50;;;;;;;;;;10132867;28;20127;-75
2024/03/04 13:44:59;;;;;;;5.57;5.07;;;;;;;;;;10118868;28;20099;-75
2024/03/04 13:49:54;;;;;;;5.32;4.82;;;;;;;;;;10117020;28;20056;-75
2024/03/04 13:54:48;;;;;;;5.38;4.88;;;;;;;;;;10118759;28;20404;-75
2024/03/04 13:59:41;;;;;;;5.60;5.07;;;;;;;;;;10121255;28;20052;-75
2024/03/04 14:04:36;;;;;;;5.80;5.30;;;;;;;;;;10124467;28;20087;-76
2024/03/04 14:09:30;;;;;;;6.65;5.13;;;;;;;;;;10128719;28;20079;-75
2024/03/04 14:14:24;;;;;;;8.13;6.53;;;;;;;;;;10119375;28;20508;-74
2024/03/04 14:19:19;;;;;;;7.13;6.43;;;;;;;;;;10111296;28;20429;-75
2024/03/04 14:24:13;;;;;;;8.48;6.97;;;;;;;;;;10123834;28;20114;-75
2024/03/04 14:29:08;;;;;;;7.47;6.78;;;;;;;;;;10140469;28;20057;-75
2024/03/04 14:34:01;;;;;;;8.23;7.43;;;;;;;;;;10140034;28;20086;-76
2024/03/04 14:38:56;;;;;;;8.65;7.85;;;;;;;;;;10143326;28;20511;-75
2024/03/04 14:43:50;;;;;;;14.88;12.00;;;;;;;;;;10142316;28;20080;-75
2024/03/04 14:48:46;;;;;;;10.25;9.25;;;;;;;;;;10144684;28;20144;-75
2024/03/04 14:53:57;;;;;;;9.10;8.20;;;;;;;;;;10139881;28;20102;-75
2024/03/04 14:58:51;;;;;;;13.07;9.32;;;;;;;;;;10132437;28;20041;-75
2024/03/04 15:03:45;;;;;;;7.90;7.13;;;;;;;;;;10143620;28;20514;-75
2024/03/04 15:08:42;;;;;;;11.88;8.50;;;;;;;;;;10143455;28;20049;-75
2024/03/04 15:13:36;;;;;;;11.82;9.52;;;;;;;;;;10140606;28;20072;-75
2024/03/04 15:18:34;;;;;;;10.43;8.38;;;;;;;;;;10146056;28;20264;-76
2024/03/04 15:23:28;;;;;;;9.35;8.32;;;;;;;;;;10135058;28;20076;-76
2024/03/04 15:28:26;;;;;;;9.07;8.15;;;;;;;;;;10135027;28;20049;-74
2024/03/04 15:33:20;;;;;;;9.93;8.98;;;;;;;;;;10128217;28;20614;-75
2024/03/04 15:38:14;;;;;;;13.45;10.07;;;;;;;;;;10124204;28;20071;-75
2024/03/04 15:43:08;;;;;;;9.95;8.95;;;;;;;;;;10136055;28;20057;-73
2024/03/04 15:48:06;;;;;;;12.13;9.80;;;;;;;;;;10140920;28;20504;-74
2024/03/04 15:53:00;;;;;;;12.15;10.88;;;;;;;;;;10143592;28;20447;-74
2024/03/04 15:57:54;;;;;;;16.15;11.57;;;;;;;;;;10131262;28;20121;-74
2024/03/04 16:02:52;;;;;;;15.40;13.07;;;;;;;;;;10134448;28;20135;-76
2024/03/04 16:07:46;;;;;;;9.88;7.35;;;;;;;;;;10139382;28;20552;-76
2024/03/04 16:12:39;;;;;;;6.25;5.13;;;;;;;;;;10135108;28;20102;-76
2024/03/04 16:17:33;;;;;;;11.95;8.30;;;;;;;;;;10130775;28;20053;-75
2024/03/04 16:22:27;;;;;;;7.38;6.63;;;;;;;;;;10135655;28;20389;-75
2024/03/04 16:27:20;;;;;;;7.93;6.80;;;;;;;;;;10139720;28;20064;-76
2024/03/04 16:32:14;;;;;;;10.13;7.35;;;;;;;;;;10139518;28;20057;-76
2024/03/04 16:37:08;;;;;;;11.40;8.63;;;;;;;;;;10135150;28;20060;-75
2024/03/04 16:42:02;;;;;;;10.25;8.23;;;;;;;;;;10129148;28;20048;-75
2024/03/04 16:46:56;;;;;;;14.18;9.77;;;;;;;;;;10124826;28;20139;-75
2024/03/04 16:51:51;;;;;;;18.15;13.15;;;;;;;;;;10129242;28;20044;-76
2024/03/04 16:56:46;;;;;;;13.02;11.75;;;;;;;;;;10134756;28;20056;-76
2024/03/04 17:01:39;;;;;;;12.98;11.32;;;;;;;;;;10135628;28;20508;-75
2024/03/04 17:06:38;;;;;;;14.05;11.38;;;;;;;;;;10131965;28;20045;-75
2024/03/04 17:11:32;;;;;;;12.02;10.13;;;;;;;;;;10137330;28;20465;-75
2024/03/04 17:16:26;;;;;;;13.70;9.77;;;;;;;;;;10120533;28;20048;-75
2024/03/04 17:21:19;;;;;;;9.88;8.88;;;;;;;;;;10115108;28;20579;-77
2024/03/04 17:26:13;;;;;;;14.63;10.80;;;;;;;;;;10129372;28;20056;-75
2024/03/04 17:31:08;;;;;;;17.27;15.50;;;;;;;;;;10136330;28;20052;-76
2024/03/04 17:36:04;;;;;;;14.43;13.02;;;;;;;;;;10146883;28;20508;-73
2024/03/04 17:40:58;;;;;;;14.00;12.43;;;;;;;;;;10139078;28;20045;-78
2024/03/04 17:45:52;;;;;;;25.83;22.30;;;;;;;;;;10142785;28;20432;-75
2024/03/04 17:50:46;;;;;;;25.30;19.58;;;;;;;;;;10137016;28;20058;-74
2024/03/04 17:55:41;;;;;;;19.83;15.95;;;;;;;;;;10136185;28;20044;-74
2024/03/04 18:00:35;;;;;;;35.30;27.42;;;;;;;;;;10138958;28;20040;-77
2024/03/04 18:05:30;;;;;;;43.60;31.00;;;;;;;;;;10138671;28;20101;-75
2024/03/04 18:10:25;;;;;;;37.92;32.10;;;;;;;;;;10145989;28;20052;-75
2024/03/04 18:15:20;;;;;;;26.77;23.45;;;;;;;;;;10133291;28;20115;-74
2024/03/04 18:20:16;;;;;;;29.38;25.98;;;;;;;;;;10138071;28;20094;-75
2024/03/04 18:25:09;;;;;;;34.15;30.50;;;;;;;;;;10144367;28;20068;-75
2024/03/04 18:30:06;;;;;;;53.42;37.13;;;;;;;;;;10137452;28;20088;-75
2024/03/04 18:34:59;;;;;;;25.35;22.27;;;;;;;;;;10139331;28;20049;-75
2024/03/04 18:39:53;;;;;;;28.63;23.13;;;;;;;;;;10142529;28;20055;-74
2024/03/04 18:44:47;;;;;;;27.20;24.27;;;;;;;;;;10136542;28;20048;-75
2024/03/04 18:49:41;;;;;;;23.88;21.45;;;;;;;;;;10139634;28;20049;-75
2024/03/04 18:54:35;;;;;;;26.20;19.20;;;;;;;;;;10141102;28;20079;-74
2024/03/04 18:59:29;;;;;;;20.67;18.48;;;;;;;;;;10141297;28;20489;-75
2024/03/04 19:04:31;;;;;;;22.50;19.05;;;;;;;;;;10140407;28;20049;-75
2024/03/04 19:09:24;;;;;;;20.40;18.30;;;;;;;;;;10138506;28;20048;-74
2024/03/04 19:14:18;;;;;;;25.45;22.65;;;;;;;;;;10138391;28;20050;-75
2024/03/04 19:19:12;;;;;;;25.20;20.00;;;;;;;;;;10133261;28;20067;-75
2024/03/04 19:24:06;;;;;;;29.15;21.17;;;;;;;;;;10140341;28;20143;-74
2024/03/04 19:29:00;;;;;;;38.53;27.02;;;;;;;;;;10141862;28;20044;-76
2024/03/04 19:33:53;;;;;;;29.77;23.42;;;;;;;;;;10138367;28;20052;-75
2024/03/04 19:38:47;;;;;;;24.65;19.98;;;;;;;;;;10150468;28;20146;-75
2024/03/04 19:43:40;;;;;;;21.83;19.38;;;;;;;;;;10145540;28;20052;-75
2024/03/04 19:48:35;;;;;;;23.38;18.90;;;;;;;;;;10146409;28;20132;-74
2024/03/04 19:53:28;;;;;;;20.95;18.10;;;;;;;;;;10139295;28;20049;-76
2024/03/04 19:58:23;;;;;;;19.80;17.70;;;;;;;;;;10126832;28;20096;-76
2024/03/04 20:03:16;;;;;;;21.48;15.07;;;;;;;;;;10128923;28;20057;-74
2024/03/04 20:08:12;;;;;;;18.52;16.40;;;;;;;;;;10142721;28;20057;-76
2024/03/04 20:13:06;;;;;;;24.10;19.17;;;;;;;;;;10139583;28;20071;-77
2024/03/04 20:18:00;;;;;;;20.30;18.23;;;;;;;;;;10140195;28;20044;-75
2024/03/04 20:22:54;;;;;;;18.30;16.35;;;;;;;;;;10142896;28;20052;-79
2024/03/04 20:27:48;;;;;;;17.77;15.90;;;;;;;;;;10138149;28;20041;-85
2024/03/04 20:32:43;;;;;;;21.77;18.52;;;;;;;;;;10140843;28;20075;-80
2024/03/04 20:37:38;;;;;;;22.35;17.25;;;;;;;;;;10133543;28;20049;-76
2024/03/04 20:42:32;;;;;;;19.55;17.52;;;;;;;;;;10139837;28;20455;-76
2024/03/04 20:47:26;;;;;;;21.58;16.35;;;;;;;;;;10143418;28;20078;-78
2024/03/04 20:52:21;;;;;;;19.63;15.68;;;;;;;;;;10136559;28;20036;-77
2024/03/04 20:57:16;;;;;;;17.83;14.88;;;;;;;;;;10129842;28;20131;-74
2024/03/04 21:02:12;;;;;;;17.20;15.35;;;;;;;;;;10135036;28;20059;-78
2024/03/04 21:07:06;;;;;;;19.45;15.25;;;;;;;;;;10141070;28;20048;-74
2024/03/04 21:11:59;;;;;;;20.48;16.48;;;;;;;;;;10119259;28;20135;-73
2024/03/04 21:16:54;;;;;;;23.88;17.00;;;;;;;;;;10128478;28;20053;-75
2024/03/04 21:21:48;;;;;;;17.38;13.82;;;;;;;;;;10135963;28;20070;-75
2024/03/04 21:26:42;;;;;;;27.95;14.90;;;;;;;;;;10138286;28;20463;-78
2024/03/04 21:31:36;;;;;;;19.92;14.02;;;;;;;;;;10136297;28;20565;-77
2024/03/04 21:36:30;;;;;;;18.83;14.10;;;;;;;;;;10138117;28;20056;-73
2024/03/04 21:41:24;;;;;;;20.63;15.20;;;;;;;;;;10139329;28;20049;-73
2024/03/04 21:46:18;;;;;;;19.67;12.82;;;;;;;;;;10138574;28;20054;-73
2024/03/04 21:51:12;;;;;;;16.35;12.52;;;;;;;;;;10138787;28;20060;-72
2024/03/04 21:56:10;;;;;;;19.30;12.75;;;;;;;;;;10137860;28;20094;-72
2024/03/04 22:01:06;;;;;;;17.73;10.57;;;;;;;;;;10136174;28;20048;-73
2024/03/04 22:06:01;;;;;;;14.63;10.23;;;;;;;;;;10136983;28;20086;-72
2024/03/04 22:10:55;;;;;;;15.15;13.30;;;;;;;;;;10136813;28;20117;-72
2024/03/04 22:15:49;;;;;;;18.88;12.10;;;;;;;;;;10137443;28;20048;-72
2024/03/04 22:20:44;;;;;;;16.60;12.15;;;;;;;;;;10139099;28;20109;-73
2024/03/04 22:25:38;;;;;;;21.85;13.13;;;;;;;;;;10145872;28;20546;-73
2024/03/04 22:30:32;;;;;;;14.23;11.77;;;;;;;;;;10145274;28;20483;-72
2024/03/04 22:35:25;;;;;;;21.63;11.80;;;;;;;;;;10142661;28;20057;-73
2024/03/04 22:40:20;;;;;;;17.52;12.75;;;;;;;;;;10143310;28;20044;-71
2024/03/04 22:45:14;;;;;;;19.58;12.57;;;;;;;;;;10143026;28;20087;-72
2024/03/04 22:50:11;;;;;;;20.60;13.43;;;;;;;;;;10125541;28;20062;-72
2024/03/04 22:55:08;;;;;;;18.60;12.70;;;;;;;;;;10138182;28;20056;-72
2024/03/04 23:00:09;;;;;;;21.35;13.32;;;;;;;;;;10144040;28;20063;-72
2024/03/04 23:05:04;;;;;;;17.23;12.23;;;;;;;;;;10146888;28;20052;-73
2024/03/04 23:09:58;;;;;;;16.58;11.75;;;;;;;;;;10143263;28;20056;-71
2024/03/04 23:14:52;;;;;;;14.57;11.10;;;;;;;;;;10141994;28;20049;-71
2024/03/04 23:19:46;;;;;;;14.98;10.75;;;;;;;;;;10142201;28;20044;-71
2024/03/04 23:24:41;;;;;;;13.07;10.10;;;;;;;;;;10140908;28;20504;-72
2024/03/04 23:29:34;;;;;;;16.15;10.35;;;;;;;;;;10137883;28;20059;-72
2024/03/04 23:34:29;;;;;;;12.52;9.35;;;;;;;;;;10138847;28;20110;-73
2024/03/04 23:39:24;;;;;;;13.85;9.35;;;;;;;;;;10142732;28;20051;-73
2024/03/04 23:44:19;;;;;;;12.35;8.88;;;;;;;;;;10142830;28;20052;-73
2024/03/04 23:49:14;;;;;;;16.48;10.05;;;;;;;;;;10143567;28;20114;-72
2024/03/04 23:54:08;;;;;;;20.95;10.73;;;;;;;;;;10143871;28;20048;-75
2024/03/04 23:59:02;;;;;;;11.20;9.75;;;;;;;;;;10142729;28;20055;-76
